Terminal Aerodrome Forecast
Issued by NWS

Home | Current Version | Previous Version | Text Only | Print | Product List | Glossary On
Versions: 1 2 3 4 5 6 7 8 9 10 11 12 13 14 15 16 17 18
122
FTUS46 KMFR 181738 CCA
TAFLMT
TAF COR
KLMT 181738Z 1818/1918 29021G30KT P6SM -SHSN SCT020 BKN040
      TEMPO 1818/1820 1 1/2SM -SHSN BKN020
     FM190200 29017G26KT 5SM -SHSN SCT015 BKN030
     FM190400 29008KT 4SM -SHSN SCT015 OVC035
     FM191200 30004KT 4SM -SN HZ BR BKN050
     FM191500 31008KT P6SM SCT250=

USA.gov is the U.S. government's official web portal to all federal, state and local government web resources and services.